Pagrindinis puslapis
METAR-TAF:

METAR-TAF

Oro uostai :

Lusaka, Zambija

platuma: 15-19-51S, ilguma: 028-27-09E, Aukštis: 1152 m

Dabartinis oras

Ataskaita buvo paskelbta 53 minutes, ne 04:00 UTC
Vėjas 4 kt iš Rytų/Pietryčių
Temperatūra 15°C
Drėgmė 55%
Slėgis 1022 hPa
Matomumas: 9000 m
Giedras dangus
migla

METAR: FLKK 180400Z 12004KT 9000 HZ SKC 15/06 Q1022

Laikas: 06:53 (04:53 UTC)

Prognozė

Ataskaita buvo paskelbta 18 valandos ir 53 minutes, ne 10:00 UTC
Prognozė galioja nuo 17 metu 12 UTC su 18 metu 18 UTC
Vėjas 10 kt iš Rytų/Pietryčių
Matomumas: 9000 m
Nuo 17 metu 1800 UTC
Vėjas 5 kt iš Rytų
Matomumas 10 km arba daugiau
nėra debesų žemiau 1500 m ir nėra kamuolinių lietaus debesų
Tapsmas
nuo 18 metu 04 UTC su 18 metu 06 UTC
Vėjas 10 kt iš Rytų
Matomumas: 8000 m

TAF: FLKK 171000Z 1712/1818 11010KT 9000 NSC FM171800 10005KT CAVOK BECMG 1804/1806 10010KT 8000 NSC

Orai ataskaitas ir orų prognozės (METAR, TAF).

turimą stotys yra geltonos ir raudonos taškus žemėlapyje.

Perkelti pele per norėdami pamatyti stoties vardą.

Tada spustelėkite, norėdami matyti oro stebėjimo ir prognozės.

Norėdami pakeisti žemėlapį: spustelėkite ant žalios mygtukų su juodo kryžiaus žemyn,; žalią mygtuką su brūkšneliu, jei norite nutolinti; arba žalių rodyklių gretimoms žemėlapius.


METAR-TAF: